Time;durP1;ratioP1;P1;durP2;ratioP2;P2;SDS_P1;SDS_P2;PMS_P1;PMS_P2;Temp;Humidity;BMP_temperature;BMP_pressure;BME280_temperature;BME280_humidity;BME280_pressure;Samples;Min_cycle;Max_cycle;Signal;HPM_P1;HPM_P2
2022/08/23 00:01:56;;;;;;;5.65;2.78;;;21.30;99.90;;;;;;5050126;28;20211;-68
2022/08/23 00:04:30;;;;;;;4.60;3.00;;;21.30;99.90;;;;;;5050190;28;20323;-68
2022/08/23 00:06:57;;;;;;;3.60;2.67;;;21.20;99.90;;;;;;5050360;28;20231;-71
2022/08/23 00:09:26;;;;;;;2.77;2.50;;;21.10;99.90;;;;;;5050382;28;20265;-70
2022/08/23 00:12:03;;;;;;;2.85;2.60;;;21.10;99.90;;;;;;5050163;28;20204;-70
2022/08/23 00:14:32;;;;;;;3.15;2.95;;;21.20;99.90;;;;;;5049819;28;20207;-69
2022/08/23 00:16:59;;;;;;;3.53;2.90;;;21.20;99.90;;;;;;5049516;28;20588;-69
2022/08/23 00:19:28;;;;;;;3.47;2.50;;;21.20;99.90;;;;;;5050011;28;20295;-69
2022/08/23 00:21:56;;;;;;;3.37;2.83;;;21.20;99.90;;;;;;5050042;28;20207;-69
2022/08/23 00:24:24;;;;;;;3.55;2.83;;;21.20;99.90;;;;;;5049926;28;20208;-69
2022/08/23 00:26:59;;;;;;;3.13;2.50;;;21.20;99.90;;;;;;5049905;28;20526;-69
2022/08/23 00:29:31;;;;;;;3.83;2.97;;;21.20;99.90;;;;;;5049799;28;20252;-69
2022/08/23 00:31:58;;;;;;;3.70;2.77;;;21.20;99.90;;;;;;5049443;28;20199;-69
2022/08/23 00:34:25;;;;;;;4.53;2.77;;;21.20;99.90;;;;;;5049538;28;20575;-69
2022/08/23 00:36:53;;;;;;;3.13;2.80;;;21.20;99.90;;;;;;5049699;28;20559;-69
2022/08/23 00:39:21;;;;;;;7.97;2.83;;;21.20;99.90;;;;;;5049668;28;20208;-69
2022/08/23 00:41:49;;;;;;;4.00;3.00;;;21.10;99.90;;;;;;5049126;28;20239;-69
2022/08/23 00:50:01;;;;;;;3.25;2.88;;;21.20;99.90;;;;;;5049793;28;20665;-69
2022/08/23 00:52:33;;;;;;;6.67;2.83;;;21.10;99.90;;;;;;5049516;28;20200;-69
2022/08/23 00:55:00;;;;;;;4.93;2.67;;;21.10;99.90;;;;;;5049361;28;20201;-69
2022/08/23 00:57:28;;;;;;;3.53;2.93;;;21.10;99.90;;;;;;5049456;28;20204;-69
2022/08/23 00:59:57;;;;;;;3.53;2.90;;;21.10;99.90;;;;;;5049224;28;20245;-69
2022/08/23 01:02:24;;;;;;;3.83;2.70;;;21.00;99.90;;;;;;5048789;28;20207;-69
2022/08/23 01:04:57;;;;;;;4.90;2.83;;;21.10;99.90;;;;;;5048271;28;20243;-69
2022/08/23 01:07:40;;;;;;;3.03;2.72;;;21.10;99.90;;;;;;5048940;28;20204;-69
2022/08/23 01:10:11;;;;;;;3.60;2.90;;;21.00;99.90;;;;;;5049011;28;20217;-69
2022/08/23 01:12:43;;;;;;;3.17;2.87;;;21.00;99.90;;;;;;5045367;28;20220;-69
2022/08/23 01:15:16;;;;;;;3.43;2.77;;;20.90;99.90;;;;;;5048366;28;20196;-69
2022/08/23 01:17:47;;;;;;;4.33;2.80;;;20.90;99.90;;;;;;5049347;28;20196;-70
2022/08/23 01:20:18;;;;;;;3.50;3.20;;;20.80;99.90;;;;;;5048636;28;20778;-70
2022/08/23 01:22:52;;;;;;;3.23;2.83;;;20.80;99.90;;;;;;5048956;28;20277;-70
2022/08/23 01:25:22;;;;;;;4.23;2.80;;;20.70;99.90;;;;;;5048901;28;20198;-68
2022/08/23 01:27:50;;;;;;;5.23;3.10;;;20.70;99.90;;;;;;5048857;28;20196;-69
2022/08/23 01:30:19;;;;;;;4.70;3.20;;;20.70;99.90;;;;;;5048154;28;20232;-69
2022/08/23 01:32:49;;;;;;;4.93;2.93;;;20.60;99.90;;;;;;5048792;28;20204;-68
2022/08/23 01:35:18;;;;;;;6.23;3.17;;;20.60;99.90;;;;;;5048780;28;20716;-68
2022/08/23 01:37:46;;;;;;;6.33;3.03;;;20.60;99.90;;;;;;5048267;28;20215;-68
2022/08/23 01:40:14;;;;;;;6.67;3.40;;;20.60;99.90;;;;;;5048286;28;20224;-68
2022/08/23 01:42:42;;;;;;;3.03;2.80;;;20.60;99.90;;;;;;5046283;28;20706;-69
2022/08/23 01:45:11;;;;;;;5.17;3.30;;;20.70;99.90;;;;;;5048189;28;20659;-69
2022/08/23 01:47:38;;;;;;;3.70;3.17;;;20.70;99.90;;;;;;5048141;28;20671;-69
2022/08/23 01:50:06;;;;;;;3.37;3.07;;;20.70;99.90;;;;;;5048449;28;20219;-69
2022/08/23 01:52:33;;;;;;;3.70;3.20;;;20.60;99.90;;;;;;5047981;28;20210;-69
2022/08/23 01:55:00;;;;;;;7.77;2.93;;;20.60;99.90;;;;;;5048032;28;20216;-69
2022/08/23 01:57:27;;;;;;;6.23;3.27;;;20.60;99.90;;;;;;5048164;28;20232;-69
2022/08/23 01:59:56;;;;;;;4.00;3.30;;;20.60;99.90;;;;;;5048375;28;20216;-69
2022/08/23 02:02:23;;;;;;;4.33;3.23;;;20.50;99.90;;;;;;5047276;28;20228;-69
2022/08/23 02:04:50;;;;;;;5.47;3.70;;;20.50;99.90;;;;;;5048131;28;20212;-68
2022/08/23 02:07:17;;;;;;;4.37;3.13;;;20.50;99.90;;;;;;5047855;28;20590;-69
2022/08/23 02:09:44;;;;;;;3.37;2.90;;;20.50;99.90;;;;;;5048159;28;20215;-69
2022/08/23 02:12:11;;;;;;;5.03;3.30;;;20.50;99.90;;;;;;5048321;28;20624;-69
2022/08/23 02:14:40;;;;;;;4.03;2.50;;;20.50;99.90;;;;;;5047827;28;20214;-69
2022/08/23 02:17:09;;;;;;;4.20;3.30;;;20.50;99.90;;;;;;5048033;28;20212;-67
2022/08/23 02:19:36;;;;;;;3.53;3.17;;;20.50;99.90;;;;;;5047520;28;20204;-70
2022/08/23 02:22:04;;;;;;;3.80;2.87;;;20.50;99.90;;;;;;5048010;28;20246;-68
2022/08/23 02:24:31;;;;;;;4.00;2.80;;;20.50;99.90;;;;;;5047667;28;20222;-68
2022/08/23 02:27:01;;;;;;;3.90;3.50;;;20.50;99.90;;;;;;5047802;28;20230;-68
2022/08/23 02:29:29;;;;;;;3.60;3.30;;;20.50;99.90;;;;;;5041503;28;20235;-68
2022/08/23 02:31:56;;;;;;;5.23;3.13;;;20.50;99.90;;;;;;5046069;28;20253;-68
2022/08/23 02:34:24;;;;;;;4.43;3.50;;;20.50;99.90;;;;;;5046226;28;20212;-68
2022/08/23 02:36:51;;;;;;;8.70;3.40;;;20.40;99.90;;;;;;5046154;28;20211;-68
2022/08/23 02:39:18;;;;;;;5.73;3.40;;;20.40;99.90;;;;;;5045454;28;20222;-68
2022/08/23 02:41:45;;;;;;;3.50;3.20;;;20.40;99.90;;;;;;5044788;28;20246;-68
2022/08/23 02:44:12;;;;;;;4.00;3.10;;;20.40;99.90;;;;;;5045319;28;20753;-67
2022/08/23 02:46:40;;;;;;;4.40;3.17;;;20.40;99.90;;;;;;5045437;28;20212;-68
2022/08/23 02:49:07;;;;;;;6.73;2.87;;;20.40;99.90;;;;;;5045682;28;20211;-67
2022/08/23 02:51:35;;;;;;;5.17;3.13;;;20.40;99.90;;;;;;5045610;28;20208;-68
2022/08/23 02:54:02;;;;;;;3.20;2.87;;;20.50;99.90;;;;;;5045388;28;20742;-68
2022/08/23 02:56:29;;;;;;;5.30;2.93;;;20.50;99.90;;;;;;5046023;28;20207;-68
2022/08/23 02:58:56;;;;;;;4.10;2.93;;;20.50;99.90;;;;;;5046040;28;20208;-68
2022/08/23 03:01:26;;;;;;;3.50;3.10;;;20.40;99.90;;;;;;5044662;28;20235;-68
2022/08/23 03:03:53;;;;;;;5.00;2.73;;;20.40;99.90;;;;;;5045160;28;20977;-68
2022/08/23 03:06:20;;;;;;;3.60;3.10;;;20.30;99.90;;;;;;5045022;28;20747;-68
2022/08/23 03:08:48;;;;;;;4.00;2.80;;;20.30;99.90;;;;;;5035240;28;20307;-68
2022/08/23 03:11:17;;;;;;;4.50;2.90;;;20.30;99.90;;;;;;5033806;28;20294;-68
2022/08/23 03:13:45;;;;;;;3.50;3.00;;;20.30;99.90;;;;;;5044336;28;20215;-68
2022/08/23 03:16:12;;;;;;;6.53;3.03;;;20.30;99.90;;;;;;5044860;28;20261;-68
2022/08/23 03:18:40;;;;;;;6.10;3.40;;;20.30;99.90;;;;;;5045051;28;20230;-68
2022/08/23 03:21:09;;;;;;;3.23;3.00;;;20.30;99.90;;;;;;5045123;28;20716;-68
2022/08/23 03:23:36;;;;;;;3.63;2.97;;;20.30;99.90;;;;;;5044444;28;20200;-68
2022/08/23 03:26:09;;;;;;;3.43;3.07;;;20.30;99.90;;;;;;5044783;28;20212;-68
2022/08/23 03:28:38;;;;;;;3.83;2.93;;;20.30;99.90;;;;;;5049316;28;20234;-68
2022/08/23 03:31:06;;;;;;;8.10;3.20;;;20.30;99.90;;;;;;5051116;28;20234;-68
2022/08/23 03:33:33;;;;;;;4.37;3.20;;;20.30;99.90;;;;;;5050847;28;20208;-68
2022/08/23 03:36:03;;;;;;;5.80;3.30;;;20.30;99.90;;;;;;5050683;28;20208;-68
2022/08/23 03:38:30;;;;;;;3.97;3.40;;;20.30;99.90;;;;;;5050873;28;20216;-68
2022/08/23 03:40:57;;;;;;;5.37;3.30;;;20.30;99.90;;;;;;5050530;28;20224;-68
2022/08/23 03:43:25;;;;;;;4.60;3.20;;;20.30;99.90;;;;;;5040643;28;20208;-68
2022/08/23 03:45:52;;;;;;;5.47;3.40;;;20.30;99.90;;;;;;5030603;28;20212;-68
2022/08/23 03:48:19;;;;;;;4.73;3.73;;;20.30;99.90;;;;;;5030507;28;20212;-68
2022/08/23 03:50:46;;;;;;;3.70;3.20;;;20.40;99.90;;;;;;5038275;28;20208;-68
2022/08/23 03:53:15;;;;;;;5.23;3.50;;;20.30;99.90;;;;;;5050489;28;20281;-68
2022/08/23 03:55:43;;;;;;;6.57;3.40;;;20.20;99.90;;;;;;5050464;28;20196;-68
2022/08/23 03:58:10;;;;;;;7.03;3.50;;;20.20;99.90;;;;;;5050368;28;20208;-68
2022/08/23 04:00:39;;;;;;;4.97;3.50;;;20.20;99.90;;;;;;5050041;28;20210;-68
2022/08/23 04:03:06;;;;;;;3.73;3.10;;;20.20;99.90;;;;;;5050418;28;20248;-68
2022/08/23 04:05:33;;;;;;;5.20;3.67;;;20.30;99.90;;;;;;5050166;28;20227;-68
2022/08/23 04:08:01;;;;;;;6.10;3.67;;;20.30;99.90;;;;;;5049805;28;20893;-69
2022/08/23 04:10:28;;;;;;;5.73;3.87;;;20.30;99.90;;;;;;5049999;28;20211;-68
2022/08/23 04:12:54;;;;;;;3.97;3.57;;;20.30;99.90;;;;;;5050370;28;20208;-68
2022/08/23 04:15:23;;;;;;;3.63;3.10;;;20.30;99.90;;;;;;5049852;28;20214;-68
2022/08/23 04:17:51;;;;;;;3.87;3.47;;;20.30;99.90;;;;;;5050003;28;20212;-69
2022/08/23 04:20:18;;;;;;;3.80;3.50;;;20.30;99.90;;;;;;5049886;28;20692;-68
2022/08/23 04:22:45;;;;;;;6.70;3.50;;;20.30;99.90;;;;;;5049735;28;20231;-68
2022/08/23 04:25:11;;;;;;;4.73;3.40;;;20.30;99.90;;;;;;5049746;28;20303;-68
2022/08/23 04:27:38;;;;;;;6.13;4.13;;;20.30;99.90;;;;;;5049602;28;20200;-68
2022/08/23 04:30:06;;;;;;;6.33;3.90;;;20.20;99.90;;;;;;5049896;28;20590;-68
2022/08/23 04:32:33;;;;;;;5.53;4.30;;;20.20;99.90;;;;;;5049517;28;20212;-68
2022/08/23 04:35:03;;;;;;;5.70;3.90;;;20.20;99.90;;;;;;5049639;28;20204;-68
2022/08/23 04:37:30;;;;;;;9.37;4.43;;;20.20;99.90;;;;;;5049761;28;20192;-68
2022/08/23 04:42:41;;;;;;;5.20;3.73;;;20.10;99.90;;;;;;5045184;28;20382;-68
2022/08/23 04:45:08;;;;;;;4.50;3.77;;;20.10;99.90;;;;;;5029348;28;20729;-68
2022/08/23 04:47:39;;;;;;;4.23;3.70;;;20.10;99.90;;;;;;5041502;28;20212;-68
2022/08/23 04:50:08;;;;;;;12.17;4.30;;;20.10;99.90;;;;;;5049681;28;20192;-68
2022/08/23 04:52:35;;;;;;;10.27;4.20;;;20.10;99.90;;;;;;5049120;28;20689;-68
2022/08/23 04:55:01;;;;;;;5.47;4.03;;;20.10;99.90;;;;;;5049334;28;20208;-68
2022/08/23 04:57:28;;;;;;;6.50;3.90;;;20.20;99.90;;;;;;5049285;28;20218;-68
2022/08/23 04:59:55;;;;;;;7.63;4.10;;;20.20;99.90;;;;;;5049340;28;20295;-69
2022/08/23 05:02:22;;;;;;;3.80;3.40;;;20.20;99.90;;;;;;5049029;28;20282;-68
2022/08/23 05:04:49;;;;;;;3.30;3.00;;;20.10;99.90;;;;;;5049265;28;20215;-68
2022/08/23 05:07:17;;;;;;;5.43;3.30;;;20.10;99.90;;;;;;5048289;28;20215;-68
2022/08/23 05:09:44;;;;;;;3.87;3.20;;;20.10;99.90;;;;;;5049543;28;20276;-68
2022/08/23 05:12:11;;;;;;;5.83;3.83;;;20.10;99.90;;;;;;5048954;28;20679;-68
2022/08/23 05:14:38;;;;;;;4.77;3.63;;;20.10;99.90;;;;;;5049131;28;20214;-68
2022/08/23 05:17:05;;;;;;;6.03;4.00;;;20.10;99.90;;;;;;5048987;28;20207;-68
2022/08/23 05:19:32;;;;;;;3.77;3.10;;;20.10;99.90;;;;;;5048586;28;20211;-68
2022/08/23 05:21:58;;;;;;;7.90;3.60;;;20.10;99.90;;;;;;5048540;28;20322;-68
2022/08/23 05:24:27;;;;;;;5.47;3.40;;;20.10;99.90;;;;;;5048706;28;20211;-68
2022/08/23 05:26:53;;;;;;;4.40;3.30;;;20.10;99.90;;;;;;5048630;28;20331;-68
2022/08/23 05:29:20;;;;;;;4.37;3.13;;;20.20;99.90;;;;;;5048210;28;20235;-68
2022/08/23 05:31:47;;;;;;;5.83;3.83;;;20.20;99.90;;;;;;5048131;28;20212;-68
2022/08/23 05:34:14;;;;;;;4.10;3.10;;;20.20;99.90;;;;;;5048780;28;20210;-68
2022/08/23 05:36:41;;;;;;;10.90;3.87;;;20.20;99.90;;;;;;5048377;28;20207;-68
2022/08/23 05:39:08;;;;;;;4.90;3.33;;;20.30;99.90;;;;;;5048320;28;20205;-68
2022/08/23 05:41:36;;;;;;;7.23;3.43;;;20.30;99.90;;;;;;5047872;28;20255;-68
2022/08/23 05:44:03;;;;;;;4.27;3.50;;;20.20;99.90;;;;;;5046875;28;20208;-68
2022/08/23 05:46:30;;;;;;;4.83;3.50;;;20.20;99.90;;;;;;5048170;28;20212;-68
2022/08/23 05:48:56;;;;;;;5.03;3.63;;;20.20;99.90;;;;;;5048052;28;20200;-68
2022/08/23 05:51:26;;;;;;;5.93;3.83;;;20.30;99.90;;;;;;5047379;28;20208;-68
2022/08/23 05:53:55;;;;;;;5.83;3.80;;;20.30;99.90;;;;;;5048049;28;20250;-68
2022/08/23 05:56:24;;;;;;;5.50;3.57;;;20.30;99.90;;;;;;5047933;28;20244;-68
2022/08/23 05:58:54;;;;;;;6.30;3.37;;;20.40;99.90;;;;;;5047864;28;20262;-68
2022/08/23 06:01:22;;;;;;;5.43;3.57;;;20.40;99.90;;;;;;5047702;28;20216;-68
2022/08/23 06:03:49;;;;;;;4.47;3.60;;;20.50;99.90;;;;;;5048164;28;20204;-68
2022/08/23 06:06:17;;;;;;;4.33;3.37;;;20.40;99.90;;;;;;5047846;28;20212;-68
2022/08/23 06:08:45;;;;;;;6.33;4.00;;;20.50;99.90;;;;;;5048352;28;20208;-68
2022/08/23 06:11:15;;;;;;;3.77;3.37;;;20.40;99.90;;;;;;5047579;28;20756;-68
2022/08/23 06:13:45;;;;;;;4.53;3.60;;;20.50;99.90;;;;;;5048069;28;20217;-68
2022/08/23 06:16:15;;;;;;;7.03;3.90;;;20.50;99.90;;;;;;5047647;28;20219;-68
2022/08/23 06:18:43;;;;;;;6.10;3.90;;;20.60;99.90;;;;;;5047968;28;20212;-68
2022/08/23 06:21:12;;;;;;;6.33;3.57;;;20.60;99.90;;;;;;5047995;28;20212;-68
2022/08/23 06:23:40;;;;;;;4.53;3.17;;;20.70;99.90;;;;;;5047529;28;20270;-68
2022/08/23 06:26:10;;;;;;;4.57;3.33;;;20.70;99.90;;;;;;5047741;28;20231;-68
2022/08/23 06:28:38;;;;;;;5.20;3.40;;;20.70;99.90;;;;;;5047543;28;20313;-68
2022/08/23 06:31:05;;;;;;;5.87;3.33;;;20.70;99.90;;;;;;5047624;28;20255;-68
2022/08/23 06:33:33;;;;;;;5.53;3.33;;;20.70;99.90;;;;;;5047255;28;20204;-68
2022/08/23 06:36:09;;;;;;;4.60;3.47;;;20.70;99.90;;;;;;5047556;28;20204;-68
2022/08/23 06:38:36;;;;;;;12.07;4.03;;;20.80;99.90;;;;;;5047233;28;20204;-68
2022/08/23 06:41:09;;;;;;;6.97;3.90;;;20.80;99.90;;;;;;5027413;28;20601;-69
2022/08/23 06:43:36;;;;;;;6.87;3.83;;;20.90;99.90;;;;;;5039033;28;20684;-68
2022/08/23 06:46:09;;;;;;;5.90;3.30;;;20.90;99.90;;;;;;5046904;28;20210;-68
2022/08/23 06:48:37;;;;;;;3.70;3.30;;;20.80;99.90;;;;;;5047480;28;20216;-68
2022/08/23 06:51:11;;;;;;;7.37;3.33;;;20.90;99.90;;;;;;5047727;28;20291;-68
2022/08/23 06:53:38;;;;;;;10.20;3.40;;;20.90;99.90;;;;;;5047468;28;20208;-68
2022/08/23 06:56:06;;;;;;;5.73;3.10;;;20.90;99.90;;;;;;5047163;28;20556;-68
2022/08/23 06:58:33;;;;;;;4.33;3.30;;;21.00;99.90;;;;;;5047687;28;20208;-68
2022/08/23 07:01:10;;;;;;;3.50;3.20;;;21.00;99.90;;;;;;5047501;28;20204;-68
2022/08/23 07:03:38;;;;;;;5.23;3.33;;;21.00;99.90;;;;;;5050693;28;20235;-68
2022/08/23 07:06:06;;;;;;;8.33;3.60;;;21.00;99.90;;;;;;5051575;28;20208;-68
2022/08/23 07:08:33;;;;;;;6.30;3.10;;;21.00;99.90;;;;;;5051579;28;20254;-68
2022/08/23 07:11:00;;;;;;;4.90;3.30;;;21.10;99.90;;;;;;5051597;28;20204;-68
2022/08/23 07:13:27;;;;;;;5.07;3.10;;;20.90;99.90;;;;;;5051136;28;20222;-68
2022/08/23 07:15:58;;;;;;;4.77;2.87;;;21.00;99.90;;;;;;5051201;28;20204;-68
2022/08/23 07:18:25;;;;;;;4.17;3.10;;;21.10;99.90;;;;;;5051069;28;20192;-68
2022/08/23 07:20:57;;;;;;;6.90;3.60;;;21.10;99.90;;;;;;5050976;28;20246;-68
2022/08/23 07:23:24;;;;;;;9.77;3.20;;;21.10;99.90;;;;;;5050887;28;20228;-68
2022/08/23 07:25:51;;;;;;;6.20;3.10;;;21.10;99.90;;;;;;5051159;28;20208;-68
2022/08/23 07:28:18;;;;;;;3.20;2.80;;;21.20;99.90;;;;;;5050914;28;20234;-68
2022/08/23 07:30:45;;;;;;;5.00;3.70;;;21.20;99.90;;;;;;5050532;28;20204;-68
2022/08/23 07:33:12;;;;;;;4.53;3.27;;;21.20;99.90;;;;;;5050981;28;20208;-68
2022/08/23 07:35:46;;;;;;;17.23;3.97;;;21.30;99.90;;;;;;5050693;28;20287;-68
2022/08/23 07:38:15;;;;;;;9.53;3.67;;;21.40;99.90;;;;;;5049114;28;20199;-68
2022/08/23 07:40:42;;;;;;;6.33;3.37;;;21.40;99.90;;;;;;5033964;28;20200;-69
2022/08/23 07:43:09;;;;;;;3.05;2.80;;;21.50;99.90;;;;;;5049993;28;20232;-68
2022/08/23 07:45:36;;;;;;;9.25;3.30;;;21.50;99.90;;;;;;5050282;28;20662;-68
2022/08/23 07:48:03;;;;;;;4.43;3.30;;;21.60;99.90;;;;;;5050333;28;20204;-68
2022/08/23 07:50:30;;;;;;;6.30;2.97;;;21.60;99.90;;;;;;5050180;28;20839;-68
2022/08/23 07:52:57;;;;;;;10.93;2.92;;;21.70;99.90;;;;;;5050568;28;20211;-68
2022/08/23 07:55:25;;;;;;;5.78;3.00;;;21.70;99.90;;;;;;5049954;28;20302;-68
2022/08/23 07:57:52;;;;;;;4.13;2.70;;;21.70;99.90;;;;;;5049994;28;20290;-68
2022/08/23 08:00:19;;;;;;;5.78;3.03;;;21.70;99.90;;;;;;5049998;28;20215;-68
2022/08/23 08:02:46;;;;;;;13.65;3.92;;;21.70;99.90;;;;;;5049833;28;21029;-68
2022/08/23 08:05:12;;;;;;;5.47;3.13;;;21.80;99.90;;;;;;5049985;28;20220;-68
2022/08/23 08:07:39;;;;;;;7.00;3.35;;;21.80;99.90;;;;;;5049878;28;20677;-68
2022/08/23 08:10:07;;;;;;;6.17;3.10;;;21.80;99.90;;;;;;5050217;28;20220;-68
2022/08/23 08:12:35;;;;;;;3.25;2.90;;;21.90;99.90;;;;;;5049241;28;20667;-68
2022/08/23 08:15:03;;;;;;;8.18;3.28;;;21.90;99.90;;;;;;5049706;28;20302;-68
2022/08/23 08:17:30;;;;;;;7.97;3.13;;;21.90;99.90;;;;;;5049722;28;20216;-68
2022/08/23 08:19:56;;;;;;;4.68;2.72;;;22.00;99.90;;;;;;5050162;28;20208;-68
2022/08/23 08:22:23;;;;;;;8.88;5.57;;;22.00;99.90;;;;;;5049699;28;20232;-68
2022/08/23 08:24:50;;;;;;;5.72;3.78;;;22.10;99.90;;;;;;5050026;28;20208;-68
2022/08/23 08:27:17;;;;;;;4.28;3.17;;;22.10;99.90;;;;;;5049557;28;20210;-68
2022/08/23 08:29:45;;;;;;;6.90;3.10;;;22.00;99.90;;;;;;5049756;28;20242;-68
2022/08/23 08:32:12;;;;;;;4.53;2.13;;;22.00;99.90;;;;;;5049455;28;20219;-68
2022/08/23 08:34:39;;;;;;;4.45;2.28;;;22.00;99.90;;;;;;5049678;28;20204;-68
2022/08/23 08:37:06;;;;;;;5.17;2.90;;;22.10;99.90;;;;;;5049629;28;20208;-68
2022/08/23 08:39:33;;;;;;;4.38;2.80;;;22.10;99.90;;;;;;5045575;28;20201;-68
2022/08/23 08:42:23;;;;;;;3.78;2.80;;;22.10;99.90;;;;;;5049284;28;20228;-68
2022/08/23 08:44:54;;;;;;;4.57;3.08;;;22.10;99.90;;;;;;5029822;28;20204;-68
2022/08/23 08:47:30;;;;;;;4.87;2.90;;;22.10;99.90;;;;;;5029445;28;20197;-68
2022/08/23 08:50:02;;;;;;;6.20;3.05;;;22.10;99.90;;;;;;5046126;28;20291;-68
2022/08/23 08:52:32;;;;;;;4.63;2.90;;;22.10;99.90;;;;;;5049595;28;20196;-68
2022/08/23 08:55:04;;;;;;;6.20;2.55;;;22.10;99.90;;;;;;5049717;28;20188;-68
2022/08/23 08:57:37;;;;;;;11.65;3.22;;;22.10;99.90;;;;;;5049700;28;20307;-69
2022/08/23 09:00:10;;;;;;;3.78;2.55;;;22.20;99.90;;;;;;5049525;28;20203;-68
2022/08/23 09:02:37;;;;;;;7.35;2.92;;;22.20;99.90;;;;;;5049357;28;20266;-68
2022/08/23 09:05:13;;;;;;;3.03;2.60;;;22.30;99.90;;;;;;5049109;28;20321;-68
2022/08/23 09:07:46;;;;;;;3.40;2.47;;;22.30;99.90;;;;;;5049325;28;20215;-68
2022/08/23 09:10:30;;;;;;;6.15;2.33;;;22.30;99.90;;;;;;5049086;28;20188;-69
2022/08/23 09:13:11;;;;;;;3.85;2.40;;;22.40;99.90;;;;;;5048826;28;20203;-68
2022/08/23 09:15:48;;;;;;;3.08;2.30;;;22.50;99.90;;;;;;5048460;28;20200;-68
2022/08/23 09:18:16;;;;;;;3.75;2.30;;;22.60;99.90;;;;;;5049118;28;20202;-69
2022/08/23 09:20:47;;;;;;;2.92;2.33;;;22.70;99.90;;;;;;5048789;28;20235;-68
2022/08/23 09:23:19;;;;;;;5.00;2.35;;;22.80;99.90;;;;;;5048327;28;20228;-68
2022/08/23 09:25:52;;;;;;;8.23;2.38;;;22.90;99.90;;;;;;5047581;28;20192;-69
2022/08/23 09:28:19;;;;;;;3.05;2.45;;;23.00;99.90;;;;;;5048835;28;20224;-68
2022/08/23 09:30:51;;;;;;;5.88;2.70;;;23.00;99.90;;;;;;5048693;28;20240;-69
2022/08/23 09:33:20;;;;;;;5.80;2.80;;;23.10;99.90;;;;;;5048347;28;21080;-68
2022/08/23 09:36:13;;;;;;;4.32;2.63;;;23.10;99.90;;;;;;5048666;28;20208;-68
2022/08/23 09:38:50;;;;;;;3.17;2.33;;;23.10;99.90;;;;;;5043610;28;20193;-68
2022/08/23 09:41:19;;;;;;;67.70;7.63;;;23.00;99.90;;;;;;5028065;28;20247;-68
2022/08/23 09:43:48;;;;;;;45.15;4.97;;;23.00;99.90;;;;;;5041250;28;20231;-68
2022/08/23 09:46:25;;;;;;;35.60;5.97;;;23.00;99.90;;;;;;5048222;28;20303;-69
2022/08/23 09:48:53;;;;;;;9.32;2.50;;;23.00;99.90;;;;;;5048391;28;20188;-69
2022/08/23 09:51:24;;;;;;;4.45;1.98;;;23.00;99.90;;;;;;5048192;28;20257;-68
2022/08/23 09:54:04;;;;;;;3.58;2.53;;;23.00;99.90;;;;;;5048481;28;20235;-68
2022/08/23 09:56:35;;;;;;;5.60;2.15;;;23.00;99.90;;;;;;5048266;28;20275;-68
2022/08/23 09:59:03;;;;;;;4.63;2.35;;;23.10;99.90;;;;;;5047938;28;20812;-69
2022/08/23 10:01:34;;;;;;;3.47;2.20;;;23.10;99.90;;;;;;5047494;28;20302;-68
2022/08/23 10:04:11;;;;;;;3.97;2.05;;;23.10;99.90;;;;;;5047916;28;20649;-68
2022/08/23 10:06:40;;;;;;;3.30;2.03;;;23.20;99.90;;;;;;5047999;28;20196;-68
2022/08/23 10:09:09;;;;;;;3.65;2.13;;;23.30;99.90;;;;;;5047810;28;20307;-68
2022/08/23 10:11:39;;;;;;;10.40;2.50;;;23.30;99.90;;;;;;5047527;28;20573;-68
2022/08/23 10:14:06;;;;;;;6.70;2.28;;;23.30;99.90;;;;;;5047931;28;20205;-68
2022/08/23 10:16:41;;;;;;;3.45;2.17;;;23.30;99.90;;;;;;5047754;28;20204;-68
2022/08/23 10:19:17;;;;;;;2.97;2.08;;;23.30;99.90;;;;;;5048110;28;20196;-68
2022/08/23 10:21:51;;;;;;;2.50;2.30;;;23.30;99.90;;;;;;5047718;28;20192;-69
2022/08/23 10:24:29;;;;;;;3.17;2.08;;;23.40;99.90;;;;;;5047645;28;20216;-69
2022/08/23 10:30:05;;;;;;;2.47;2.20;;;23.50;99.90;;;;;;5047557;28;20763;-69
2022/08/23 10:32:51;;;;;;;4.95;2.30;;;23.60;99.90;;;;;;5047743;28;20207;-68
2022/08/23 10:35:39;;;;;;;2.53;2.30;;;23.70;99.90;;;;;;5047414;28;20564;-68
2022/08/23 10:38:32;;;;;;;5.07;2.50;;;23.80;99.90;;;;;;5047078;28;20196;-68
2022/08/23 10:41:08;;;;;;;4.32;2.67;;;23.90;99.90;;;;;;5027573;28;20201;-68
2022/08/23 10:43:43;;;;;;;6.22;2.25;;;24.00;99.90;;;;;;5027551;28;20326;-68
2022/08/23 10:46:11;;;;;;;3.28;2.58;;;24.10;99.90;;;;;;5027675;28;20202;-68
2022/08/23 10:48:50;;;;;;;3.35;2.20;;;24.20;99.90;;;;;;5027780;28;20289;-69
2022/08/23 10:51:19;;;;;;;4.03;2.20;;;24.30;99.90;;;;;;5027945;28;20188;-68
2022/08/23 10:53:55;;;;;;;5.72;2.35;;;24.40;99.90;;;;;;5028245;28;20219;-68
2022/08/23 10:56:22;;;;;;;4.07;1.88;;;24.60;99.90;;;;;;5027694;28;20611;-69
2022/08/23 10:58:52;;;;;;;6.13;2.22;;;24.80;99.90;;;;;;5027466;28;20682;-68
2022/08/23 11:01:39;;;;;;;2.72;1.85;;;25.00;99.90;;;;;;5027298;28;20236;-68
2022/08/23 11:04:19;;;;;;;6.80;2.15;;;25.20;99.90;;;;;;5027542;28;20231;-68
2022/08/23 11:06:52;;;;;;;3.25;2.00;;;25.30;99.90;;;;;;5046114;28;20214;-69
2022/08/23 11:09:52;;;;;;;2.08;1.88;;;25.40;99.90;;;;;;5047288;28;20205;-68
2022/08/23 11:12:23;;;;;;;3.65;1.90;;;25.60;99.90;;;;;;5003524;28;20216;-68
2022/08/23 11:15:13;;;;;;;4.50;2.03;;;25.70;99.90;;;;;;5047328;28;20196;-68
2022/08/23 11:17:54;;;;;;;3.35;2.10;;;25.90;99.90;;;;;;5047328;28;20224;-68
2022/08/23 11:21:13;;;;;;;2.15;1.95;;;26.00;99.90;;;;;;5047036;28;20308;-68
2022/08/23 11:23:46;;;;;;;2.17;1.95;;;26.00;99.90;;;;;;5047144;28;20282;-69
2022/08/23 11:26:43;;;;;;;2.85;2.03;;;26.20;99.90;;;;;;5046813;28;20205;-68
2022/08/23 11:29:29;;;;;;;4.55;1.60;;;26.40;99.90;;;;;;5038517;28;20263;-69
2022/08/23 11:32:04;;;;;;;3.05;1.60;;;26.50;99.90;;;;;;5046190;28;20291;-68
2022/08/23 11:34:39;;;;;;;16.88;2.47;;;26.60;99.90;;;;;;5046987;28;20192;-69
2022/08/23 11:37:31;;;;;;;4.10;1.98;;;26.70;99.90;;;;;;5047262;28;20287;-69
2022/08/23 11:40:11;;;;;;;2.10;1.73;;;27.00;99.90;;;;;;5031160;28;20193;-68
2022/08/23 11:42:52;;;;;;;5.00;1.85;;;27.00;99.90;;;;;;5030264;28;20244;-69
2022/08/23 11:45:28;;;;;;;7.75;2.20;;;27.10;99.90;;;;;;5046584;28;20240;-69
2022/08/23 11:48:11;;;;;;;2.88;1.80;;;27.30;99.90;;;;;;5047814;28;20247;-69
2022/08/23 11:51:06;;;;;;;2.25;1.50;;;27.50;99.90;;;;;;5050428;28;20192;-69
2022/08/23 11:53:54;;;;;;;3.42;1.85;;;27.70;99.90;;;;;;5050601;28;20192;-69
2022/08/23 11:56:48;;;;;;;4.03;1.80;;;27.80;99.90;;;;;;5050464;28;20207;-69
2022/08/23 11:59:28;;;;;;;4.55;1.80;;;27.80;99.90;;;;;;5050270;28;20188;-69
2022/08/23 12:01:56;;;;;;;3.25;1.75;;;27.80;99.80;;;;;;5050210;28;20232;-69
2022/08/23 12:04:36;;;;;;;3.65;1.90;;;27.80;99.90;;;;;;5050140;28;20234;-69
2022/08/23 12:07:11;;;;;;;1.90;1.60;;;27.70;99.90;;;;;;5050511;28;20207;-69
2022/08/23 12:09:56;;;;;;;4.95;1.50;;;27.80;99.90;;;;;;5050310;28;20199;-69
2022/08/23 12:12:34;;;;;;;3.47;2.00;;;27.80;99.50;;;;;;5050012;28;20223;-69
2022/08/23 12:15:04;;;;;;;2.95;1.67;;;27.80;99.60;;;;;;5050130;28;20192;-69
2022/08/23 12:18:12;;;;;;;3.13;1.80;;;27.80;99.60;;;;;;5038058;28;20236;-69
2022/08/23 12:20:40;;;;;;;2.22;1.92;;;27.90;99.60;;;;;;5030241;28;20205;-69
2022/08/23 12:23:19;;;;;;;2.50;1.70;;;27.80;99.60;;;;;;5042756;28;20212;-69
2022/08/23 12:25:46;;;;;;;5.15;2.30;;;27.70;99.70;;;;;;5049933;28;20200;-69
2022/08/23 12:28:33;;;;;;;3.60;1.65;;;27.50;99.70;;;;;;5049623;28;20224;-69
2022/08/23 12:31:13;;;;;;;3.75;1.80;;;27.20;99.70;;;;;;5049825;28;20196;-69
2022/08/23 12:33:50;;;;;;;2.58;1.70;;;27.20;99.80;;;;;;5049719;28;20708;-69
2022/08/23 12:36:22;;;;;;;1.90;1.38;;;27.40;99.90;;;;;;5049872;28;20193;-69
2022/08/23 12:39:00;;;;;;;3.00;1.70;;;27.60;99.90;;;;;;5049281;28;20206;-69
2022/08/23 12:41:30;;;;;;;4.43;1.85;;;27.50;99.90;;;;;;5049213;28;20254;-69
2022/08/23 12:44:02;;;;;;;2.75;1.92;;;27.40;99.90;;;;;;5049968;28;20227;-69
2022/08/23 12:46:33;;;;;;;5.38;2.00;;;27.20;99.90;;;;;;5049249;28;20197;-69
2022/08/23 12:49:00;;;;;;;3.78;2.22;;;27.10;99.90;;;;;;5049454;28;20643;-68
2022/08/23 12:51:27;;;;;;;10.07;1.90;;;26.90;99.90;;;;;;5049527;28;20204;-69
2022/08/23 12:53:55;;;;;;;7.53;2.00;;;26.90;99.90;;;;;;5049286;28;20215;-69
2022/08/23 12:56:25;;;;;;;3.30;2.17;;;27.00;99.90;;;;;;5047241;28;20306;-69
2022/08/23 12:58:54;;;;;;;2.55;1.70;;;27.50;99.90;;;;;;5048118;28;20216;-69
2022/08/23 13:01:26;;;;;;;1.90;1.70;;;27.80;99.90;;;;;;5048827;28;20232;-69
2022/08/23 13:03:56;;;;;;;3.15;1.98;;;27.90;99.90;;;;;;5048274;28;20246;-68
2022/08/23 13:06:27;;;;;;;2.70;1.60;;;28.10;99.90;;;;;;5045615;28;20211;-69
2022/08/23 13:08:58;;;;;;;3.10;1.77;;;28.40;99.80;;;;;;5039147;28;20299;-69
2022/08/23 13:11:29;;;;;;;3.17;1.80;;;28.70;99.50;;;;;;5047816;28;20615;-69
2022/08/23 13:13:55;;;;;;;4.28;1.95;;;28.60;99.20;;;;;;5030607;28;20587;-70
2022/08/23 13:16:28;;;;;;;4.32;2.05;;;28.40;98.90;;;;;;5028576;28;20891;-68